Bougere, Louisiana
Current Conditions -  °F | °C
As of 8:55 PM on Sunday 21 Dec 2014 (Local Time) from KHEZ Reporting Station
Overcast Overcast  
Wind Chill: 54°   Ceiling: 9000
Heat Index: 54°   Visibility: 10mi
Dew Point: 48°   Wind: 6mph
Humidity: 82%   Direction: 150°SSE
Pressure: 29.97"   Gusts: NA
Location:  31.5712°N, 91.5148°W
Report Text: KHEZ 220255Z AUTO 15005KT 10SM SCT018 OVC090 12/09 A2997 RMK AO1 57007
Loading
Personal Weather Stations






























Interactive Weather Map New forecast layout! Learn more

10-Day Weather Forecast

Advertisements
Track Severe Weather on mobile